DW7431 Cala Millor ES current weather conditions

sailwx.info

Wind from 112 at 3 knots gusting 4

Air temperature 31.1° C
Dewpoint 18.8° C

Last reported at 2015-Jul-05 10:01 UTC.
Time now 2015-Jul-05 13:25 UTC

Location: N 39°36' E 003°22'.
View on Google Maps.

See reports from other nearby stations

  
Tides and Currents Weather Stations Pressure Air Temp Water Temp Dewpoint Dewpoint Depression Visibility Wind Speed Wind Dir Waves Ship Positions
date/time (UTC)wind fromknots sea level pressurealtimeterstation pressurevisibilityair tempwater tempwave heightnotes
2015-Jul-05 10:01 112 3 gusting 4 31.1
2015-Jul-05 09:01 157 2 gusting 1 30.0
2015-Jul-05 08:01 157 2 gusting 5 28.9
2015-Jul-05 07:01 157 26.1
2015-Jul-05 05:01 315 0 gusting 0 23.9
2015-Jul-05 04:01 315 24.4
2015-Jul-05 01:01 337 25.6
2015-Jul-05 00:01 315 26.1
2015-Jul-04 23:01 067 26.7
2015-Jul-04 22:01 045 1 gusting 1 27.2
2015-Jul-04 21:01 067 0 gusting 0 27.8
2015-Jul-04 18:01 112 2 gusting 1 29.4
2015-Jul-04 17:01 067 2 gusting 1 30.6
2015-Jul-04 16:01 135 4 gusting 5 30.6
2015-Jul-04 15:01 112 2 gusting 4 31.7
2015-Jul-04 13:01 112 6 gusting 5 31.1
2015-Jul-04 12:01 090 5 gusting 8 32.2
2015-Jul-04 09:01 067 4 gusting 6 29.4
2015-Jul-04 08:01 067 2 gusting 6 28.3
2015-Jul-04 07:01 112 2 gusting 2 26.7
2015-Jul-04 05:01 067 2 gusting 2 24.4
2015-Jul-04 01:01 067 2 gusting 3 25.0
2015-Jul-04 00:01 045 3 gusting 3 25.6
2015-Jul-03 23:01 067 2 gusting 6 25.6
2015-Jul-03 22:01 022 2 gusting 3 26.1
2015-Jul-03 20:01 067 3 gusting 3 27.2
2015-Jul-03 19:01 067 4 gusting 4 28.3
2015-Jul-03 18:01 180 5 gusting 6 28.9
2015-Jul-03 17:01 112 6 gusting 7 29.4
2015-Jul-03 16:01 112 6 gusting 5 29.4
2015-Jul-03 15:01 090 6 gusting 6 30.6
2015-Jul-03 14:01 112 6 gusting 7 30.6